createdAt,value
2023-04-22T00:02:23.463Z,94163.94
2023-04-22T00:04:50.695Z,94158.97
2023-04-22T00:07:17.715Z,94164.75
2023-04-22T00:09:44.733Z,94165.72
2023-04-22T00:12:11.993Z,94162.13
2023-04-22T00:14:38.988Z,94164.59
2023-04-22T00:17:07.165Z,94158.91
2023-04-22T00:19:34.714Z,94160.06
2023-04-22T00:22:01.630Z,94156.53
2023-04-22T00:24:28.338Z,94166.81
2023-04-22T00:26:55.045Z,94162.06
2023-04-22T00:29:21.884Z,94157.81
2023-04-22T00:31:48.838Z,94154.25
2023-04-22T00:34:18.098Z,94158.06
2023-04-22T00:36:45.057Z,94156.66
2023-04-22T00:39:12.476Z,94161.00
2023-04-22T00:41:40.014Z,94167.00
2023-04-22T00:44:11.058Z,94162.94
2023-04-22T00:46:41.051Z,94163.94
2023-04-22T00:49:08.865Z,94158.47
2023-04-22T00:51:36.815Z,94156.81
2023-04-22T00:54:04.746Z,94152.78
2023-04-22T00:56:33.677Z,94151.84
2023-04-22T00:59:00.385Z,94158.78
2023-04-22T01:01:27.425Z,94157.88
2023-04-22T01:03:54.861Z,94154.53
2023-04-22T01:06:24.159Z,94143.56
2023-04-22T01:08:51.419Z,94140.75
2023-04-22T01:11:18.093Z,94146.50
2023-04-22T01:13:44.805Z,94152.22
2023-04-22T01:16:11.981Z,94152.00
2023-04-22T01:18:38.773Z,94155.63
2023-04-22T01:21:07.271Z,94151.34
2023-04-22T01:23:34.472Z,94153.75
2023-04-22T01:26:01.191Z,94154.03
2023-04-22T01:28:28.813Z,94156.41
2023-04-22T01:30:56.229Z,94158.13
2023-04-22T01:33:23.382Z,94167.44
2023-04-22T01:35:50.206Z,94165.28
2023-04-22T01:38:16.943Z,94163.88
2023-04-22T01:40:43.731Z,94158.44
2023-04-22T01:43:10.399Z,94162.00
2023-04-22T01:45:37.150Z,94163.91
2023-04-22T01:48:04.986Z,94171.56
2023-04-22T01:50:31.713Z,94166.84
2023-04-22T01:52:58.960Z,94166.38
2023-04-22T01:55:25.784Z,94166.13
2023-04-22T01:57:52.714Z,94165.94
2023-04-22T02:00:19.414Z,94172.84
2023-04-22T02:02:46.155Z,94173.81
2023-04-22T02:05:12.958Z,94176.22
2023-04-22T02:07:39.677Z,94174.56
2023-04-22T02:10:06.965Z,94176.25
2023-04-22T02:12:33.750Z,94176.03
2023-04-22T02:15:00.414Z,94166.03
2023-04-22T02:17:27.668Z,94171.75
2023-04-22T02:19:54.796Z,94168.19
2023-04-22T02:22:23.337Z,94168.69
2023-04-22T02:24:50.032Z,94176.31
2023-04-22T02:27:16.680Z,94170.16
2023-04-22T02:29:43.420Z,94178.47
2023-04-22T02:32:10.273Z,94167.09
2023-04-22T02:34:37.011Z,94166.13
2023-04-22T02:37:03.941Z,94163.50
2023-04-22T02:39:30.643Z,94161.84
2023-04-22T02:41:57.348Z,94163.75
2023-04-22T02:44:24.041Z,94164.25
2023-04-22T02:46:50.868Z,94165.22
2023-04-22T02:49:17.632Z,94169.03
2023-04-22T02:51:44.511Z,94175.22
2023-04-22T02:54:11.161Z,94167.38
2023-04-22T02:56:37.805Z,94165.75
2023-04-22T02:59:04.646Z,94166.22
2023-04-22T03:01:32.360Z,94169.13
2023-04-22T03:03:59.445Z,94171.50
2023-04-22T03:06:26.546Z,94164.34
2023-04-22T03:12:39.774Z,94163.22
2023-04-22T03:15:06.959Z,94160.59
2023-04-22T03:17:33.631Z,94166.53
2023-04-22T03:20:00.600Z,94161.81
2023-04-22T03:22:27.234Z,94163.50
2023-04-22T03:24:53.811Z,94161.81
2023-04-22T03:27:20.378Z,94164.44
2023-04-22T03:29:47.021Z,94157.53
2023-04-22T03:32:13.691Z,94166.59
2023-04-22T03:34:40.308Z,94166.38
2023-04-22T03:37:07.155Z,94164.72
2023-04-22T03:39:33.969Z,94164.72
2023-04-22T03:42:01.763Z,94165.22
2023-04-22T03:44:28.410Z,94156.19
2023-04-22T03:46:54.974Z,94163.34
2023-04-22T03:49:22.183Z,94159.03
2023-04-22T03:51:48.731Z,94155.94
2023-04-22T03:54:15.294Z,94150.69
2023-04-22T03:56:41.917Z,94152.66
2023-04-22T03:59:08.538Z,94156.22
2023-04-22T04:01:36.239Z,94151.91
2023-04-22T04:04:02.985Z,94157.66
2023-04-22T04:06:29.750Z,94155.75
2023-04-22T04:08:56.281Z,94158.84
2023-04-22T04:11:22.836Z,94156.94
2023-04-22T04:13:49.544Z,94163.13
2023-04-22T04:16:16.707Z,94155.53
2023-04-22T04:18:43.439Z,94161.22
2023-04-22T04:21:10.100Z,94159.81
2023-04-22T04:23:37.925Z,94155.75
2023-04-22T04:26:05.813Z,94152.22
2023-04-22T04:28:34.422Z,94157.94
2023-04-22T04:31:02.671Z,94156.03
2023-04-22T04:33:31.921Z,94153.41
2023-04-22T04:35:59.274Z,94152.72
2023-04-22T04:38:26.729Z,94159.81
2023-04-22T04:40:53.853Z,94165.78
2023-04-22T04:43:21.397Z,94156.50
2023-04-22T04:45:48.949Z,94152.47
2023-04-22T04:48:16.701Z,94151.03
2023-04-22T04:50:44.147Z,94146.50
2023-04-22T04:53:11.748Z,94145.53
2023-04-22T04:55:39.035Z,94149.13
2023-04-22T04:58:05.601Z,94152.47
2023-04-22T05:00:32.210Z,94154.34
2023-04-22T05:02:59.028Z,94155.78
2023-04-22T05:05:25.714Z,94157.94
2023-04-22T05:07:53.937Z,94166.97
2023-04-22T05:10:21.504Z,94172.19
2023-04-22T05:12:48.112Z,94179.34
2023-04-22T05:15:15.390Z,94188.13
2023-04-22T05:17:42.049Z,94189.78
2023-04-22T05:20:09.216Z,94188.34
2023-04-22T05:22:41.544Z,94197.88
2023-04-22T05:25:08.730Z,94200.03
2023-04-22T05:27:35.661Z,94202.16
2023-04-22T05:30:02.263Z,94203.09
2023-04-22T05:32:28.959Z,94200.00
2023-04-22T05:34:55.537Z,94207.38
2023-04-22T05:37:22.107Z,94197.41
2023-04-22T05:39:48.765Z,94194.53
2023-04-22T05:42:15.312Z,94201.44
2023-04-22T05:44:41.913Z,94197.16
2023-04-22T05:47:08.523Z,94193.78
2023-04-22T05:49:35.146Z,94197.38
2023-04-22T05:52:01.853Z,94196.44
2023-04-22T05:54:29.456Z,94199.25
2023-04-22T05:56:56.958Z,94201.41
2023-04-22T05:59:23.725Z,94202.38
2023-04-22T06:01:50.316Z,94201.16
2023-04-22T06:04:17.105Z,94211.88
2023-04-22T06:06:43.898Z,94204.72
2023-04-22T06:09:10.521Z,94199.72
2023-04-22T06:11:37.131Z,94199.50
2023-04-22T06:14:03.707Z,94204.25
2023-04-22T06:16:30.351Z,94205.19
2023-04-22T06:18:56.904Z,94203.53
2023-04-22T06:21:23.565Z,94204.47
2023-04-22T06:23:50.233Z,94205.63
2023-04-22T06:26:17.374Z,94200.63
2023-04-22T06:28:43.908Z,94203.00
2023-04-22T06:31:10.720Z,94203.94
2023-04-22T06:33:37.464Z,94208.94
2023-04-22T06:36:05.179Z,94209.16
2023-04-22T06:38:32.117Z,94209.63
2023-04-22T06:40:58.760Z,94210.06
2023-04-22T06:43:25.365Z,94216.25
2023-04-22T06:45:51.937Z,94210.06
2023-04-22T06:48:18.578Z,94216.47
2023-04-22T06:50:45.201Z,94216.69
2023-04-22T06:53:11.798Z,94213.34
2023-04-22T06:55:38.432Z,94217.34
2023-04-22T06:58:05.026Z,94220.94
2023-04-22T07:00:31.606Z,94219.25
2023-04-22T07:02:58.367Z,94223.28
2023-04-22T07:05:25.291Z,94217.78
2023-04-22T07:07:51.928Z,94211.81
2023-04-22T07:10:18.603Z,94208.69
2023-04-22T07:12:45.535Z,94208.91
2023-04-22T07:15:12.179Z,94206.50
2023-04-22T07:17:38.945Z,94206.00
2023-04-22T07:20:06.485Z,94215.75
2023-04-22T07:22:33.026Z,94213.56
2023-04-22T07:24:59.773Z,94212.34
2023-04-22T07:27:26.386Z,94208.03
2023-04-22T07:29:52.962Z,94204.16
2023-04-22T07:32:19.786Z,94202.00
2023-04-22T07:34:46.438Z,94205.28
2023-04-22T07:37:13.076Z,94199.53
2023-04-22T07:39:40.902Z,94204.00
2023-04-22T07:42:07.848Z,94205.63
2023-04-22T07:44:34.431Z,94207.00
2023-04-22T07:47:01.032Z,94217.28
2023-04-22T07:49:27.810Z,94215.03
2023-04-22T07:51:54.375Z,94214.53
2023-04-22T07:54:21.075Z,94216.94
2023-04-22T07:56:47.756Z,94217.84
2023-04-22T07:59:14.306Z,94222.06
2023-04-22T08:01:41.077Z,94218.66
2023-04-22T08:04:08.140Z,94221.97
2023-04-22T08:06:35.055Z,94218.06
2023-04-22T08:09:01.657Z,94215.88
2023-04-22T08:11:28.402Z,94221.28
2023-04-22T08:13:55.063Z,94215.97
2023-04-22T08:16:21.709Z,94211.72
2023-04-22T08:18:48.317Z,94211.94
2023-04-22T08:21:14.895Z,94208.38
2023-04-22T08:23:41.597Z,94211.06
2023-04-22T08:26:08.701Z,94202.88
2023-04-22T08:28:35.556Z,94207.88
2023-04-22T08:31:02.255Z,94203.03
2023-04-22T08:33:28.983Z,94207.00
2023-04-22T08:35:55.865Z,94206.91
2023-04-22T08:38:22.409Z,94198.66
2023-04-22T08:40:49.104Z,94205.81
2023-04-22T08:43:16.101Z,94202.88
2023-04-22T08:45:43.012Z,94200.03
2023-04-22T08:48:10.070Z,94199.13
2023-04-22T08:50:39.457Z,94202.13
2023-04-22T08:53:06.324Z,94201.41
2023-04-22T08:55:34.608Z,94198.38
2023-04-22T08:58:03.643Z,94196.56
2023-04-22T09:00:32.259Z,94201.44
2023-04-22T09:03:03.026Z,94190.22
2023-04-22T09:05:33.834Z,94184.22
2023-04-22T09:08:01.028Z,94197.59
2023-04-22T09:10:28.513Z,94194.66
2023-04-22T09:12:56.504Z,94193.78
2023-04-22T09:15:23.174Z,94188.09
2023-04-22T09:17:51.998Z,94186.16
2023-04-22T09:20:19.935Z,94188.09
2023-04-22T09:22:47.910Z,94187.88
2023-04-22T09:25:18.870Z,94177.19
2023-04-22T09:27:56.484Z,94188.53
2023-04-22T09:30:28.863Z,94169.00
2023-04-22T09:32:57.756Z,94170.72
2023-04-22T09:35:31.805Z,94171.31
2023-04-22T09:37:59.765Z,94172.34
2023-04-22T09:40:27.435Z,94171.78
2023-04-22T09:42:56.081Z,94168.94
2023-04-22T09:45:43.008Z,94177.84
2023-04-22T09:48:14.586Z,94173.13
2023-04-22T09:50:44.760Z,94177.47
2023-04-22T09:53:14.256Z,94177.88
2023-04-22T09:55:43.559Z,94176.16
2023-04-22T09:58:18.259Z,94172.38
2023-04-22T10:00:51.126Z,94164.47
2023-04-22T10:03:18.754Z,94163.59
2023-04-22T10:05:46.222Z,94155.34
2023-04-22T10:08:14.862Z,94152.50
2023-04-22T10:10:42.005Z,94145.75
2023-04-22T10:13:08.767Z,94134.88
2023-04-22T10:15:38.778Z,94144.25
2023-04-22T10:18:08.515Z,94138.78
2023-04-22T10:20:41.239Z,94136.84
2023-04-22T10:23:14.488Z,94137.78
2023-04-22T10:25:42.006Z,94141.34
2023-04-22T10:28:11.089Z,94142.53
2023-04-22T10:30:39.744Z,94144.53
2023-04-22T10:33:21.842Z,94142.94
2023-04-22T10:36:08.558Z,94146.28
2023-04-22T10:38:55.577Z,94142.41
2023-04-22T10:41:30.300Z,94149.84
2023-04-22T10:44:02.022Z,94154.56
2023-04-22T10:46:38.012Z,94141.16
2023-04-22T10:49:11.715Z,94140.22
2023-04-22T10:51:41.166Z,94134.78
2023-04-22T10:54:08.610Z,94134.03
2023-04-22T10:56:37.450Z,94131.38
2023-04-22T10:59:23.845Z,94139.28
2023-04-22T11:01:52.816Z,94132.56
2023-04-22T11:04:22.632Z,94133.38
2023-04-22T11:07:16.570Z,94136.16
2023-04-22T11:10:09.679Z,94141.13
2023-04-22T11:12:38.953Z,94127.69
2023-04-22T11:15:06.234Z,94143.03
2023-04-22T11:17:33.066Z,94129.53
2023-04-22T11:20:01.454Z,94120.63
2023-04-22T11:22:28.294Z,94123.97
2023-04-22T11:25:00.087Z,94126.22
2023-04-22T11:27:27.871Z,94123.13
2023-04-22T11:30:08.301Z,94121.69
2023-04-22T11:32:36.631Z,94128.56
2023-04-22T11:35:05.072Z,94133.25
2023-04-22T11:37:31.724Z,94137.50
2023-04-22T11:40:21.638Z,94131.91
2023-04-22T11:42:49.533Z,94129.72
2023-04-22T11:45:17.114Z,94132.34
2023-04-22T11:47:46.386Z,94123.97
2023-04-22T11:50:14.548Z,94125.69
2023-04-22T11:52:49.639Z,94117.88
2023-04-22T11:55:20.254Z,94117.56
2023-04-22T11:57:53.124Z,94117.41
2023-04-22T12:00:19.812Z,94116.78
2023-04-22T12:03:00.145Z,94110.38
2023-04-22T12:05:34.040Z,94110.06
2023-04-22T12:08:07.105Z,94101.91
2023-04-22T12:10:33.727Z,94104.88
2023-04-22T12:13:01.908Z,94108.56
2023-04-22T12:15:37.936Z,94095.06
2023-04-22T12:18:04.747Z,94097.16
2023-04-22T12:20:42.425Z,94089.25
2023-04-22T12:23:14.411Z,94081.44
2023-04-22T12:25:42.001Z,94090.03
2023-04-22T12:28:08.839Z,94094.53
2023-04-22T12:30:35.492Z,94088.13
2023-04-22T12:33:02.246Z,94089.13
2023-04-22T12:35:28.918Z,94089.28
2023-04-22T12:37:55.520Z,94087.31
2023-04-22T12:40:22.203Z,94096.59
2023-04-22T12:42:48.772Z,94090.59
2023-04-22T12:45:16.481Z,94096.66
2023-04-22T12:47:43.127Z,94092.59
2023-04-22T12:50:09.870Z,94086.97
2023-04-22T12:52:36.482Z,94086.97
2023-04-22T12:55:03.580Z,94085.56
2023-04-22T12:57:30.436Z,94084.47
2023-04-22T12:59:58.039Z,94085.84
2023-04-22T13:02:24.745Z,94087.81
2023-04-22T13:04:51.660Z,94081.22
2023-04-22T13:07:18.782Z,94076.16
2023-04-22T13:09:45.569Z,94078.81
2023-04-22T13:12:12.251Z,94078.09
2023-04-22T13:14:39.290Z,94072.06
2023-04-22T13:17:06.349Z,94071.34
2023-04-22T13:19:36.154Z,94074.13
2023-04-22T13:22:02.980Z,94063.91
2023-04-22T13:24:29.695Z,94076.78
2023-04-22T13:26:57.342Z,94064.56
2023-04-22T13:29:24.043Z,94058.94
2023-04-22T13:31:50.714Z,94059.34
2023-04-22T13:34:17.457Z,94057.66
2023-04-22T13:36:44.020Z,94059.56
2023-04-22T13:39:10.694Z,94057.19
2023-04-22T13:41:37.389Z,94045.25
2023-04-22T13:44:04.760Z,94054.34
2023-04-22T13:46:31.497Z,94046.63
2023-04-22T13:48:58.684Z,94040.53
2023-04-22T13:51:25.442Z,94041.22
2023-04-22T13:53:52.086Z,94039.06
2023-04-22T13:56:18.785Z,94040.97
2023-04-22T13:58:45.495Z,94029.94
2023-04-22T14:01:12.152Z,94034.38
2023-04-22T14:03:38.982Z,94032.19
2023-04-22T14:06:06.103Z,94035.00
2023-04-22T14:08:32.730Z,94030.06
2023-04-22T14:10:59.625Z,94032.66
2023-04-22T14:13:27.038Z,94029.91
2023-04-22T14:15:53.852Z,94019.97
2023-04-22T14:18:22.159Z,94036.25
2023-04-22T14:20:49.247Z,94024.34
2023-04-22T14:23:15.978Z,94024.56
2023-04-22T14:25:44.486Z,94019.59
2023-04-22T14:28:11.138Z,94024.63
2023-04-22T14:30:38.047Z,94014.88
2023-04-22T14:33:08.020Z,94017.88
2023-04-22T14:35:35.867Z,94013.81
2023-04-22T14:38:04.629Z,94015.28
2023-04-22T14:40:31.275Z,94011.41
2023-04-22T14:42:59.883Z,94012.47
2023-04-22T14:45:30.341Z,94008.66
2023-04-22T14:48:00.494Z,94016.78
2023-04-22T14:50:27.398Z,94017.81
2023-04-22T14:52:54.601Z,94023.16
2023-04-22T14:55:23.654Z,94017.56
2023-04-22T14:57:57.920Z,94013.56
2023-04-22T15:00:27.984Z,94018.75
2023-04-22T15:02:55.755Z,94019.44
2023-04-22T15:05:23.661Z,94024.56
2023-04-22T15:07:51.325Z,94022.97
2023-04-22T15:10:18.049Z,94025.31
2023-04-22T15:12:45.509Z,94024.97
2023-04-22T15:15:18.663Z,94021.09
2023-04-22T15:17:46.033Z,94023.53
2023-04-22T15:20:13.815Z,94023.22
2023-04-22T15:22:44.276Z,94030.13
2023-04-22T15:25:11.235Z,94030.94
2023-04-22T15:27:38.843Z,94029.41
2023-04-22T15:30:07.387Z,94024.03
2023-04-22T15:32:34.678Z,94035.22
2023-04-22T15:35:01.347Z,94037.34
2023-04-22T15:37:30.777Z,94036.28
2023-04-22T15:39:57.521Z,94033.13
2023-04-22T15:42:24.177Z,94025.34
2023-04-22T15:44:50.889Z,94031.97
2023-04-22T15:47:18.189Z,94029.88
2023-04-22T15:49:44.904Z,94031.38
2023-04-22T15:52:11.681Z,94029.72
2023-04-22T15:54:38.280Z,94029.38
2023-04-22T15:57:04.870Z,94028.91
2023-04-22T15:59:31.489Z,94025.09
2023-04-22T16:01:58.200Z,94026.94
2023-04-22T16:04:25.088Z,94022.88
2023-04-22T16:06:51.906Z,94033.56
2023-04-22T16:09:19.427Z,94018.31
2023-04-22T16:11:45.990Z,94030.66
2023-04-22T16:14:12.545Z,94025.84
2023-04-22T16:16:41.115Z,94027.81
2023-04-22T16:19:08.341Z,94033.84
2023-04-22T16:21:35.176Z,94032.31
2023-04-22T16:24:01.922Z,94031.47
2023-04-22T16:26:28.615Z,94028.69
2023-04-22T16:28:55.248Z,94023.34
2023-04-22T16:31:25.181Z,94033.19
2023-04-22T16:33:52.053Z,94029.34
2023-04-22T16:36:18.835Z,94024.72
2023-04-22T16:38:45.681Z,94030.47
2023-04-22T16:41:12.308Z,94024.84
2023-04-22T16:43:41.023Z,94030.34
2023-04-22T16:46:08.113Z,94033.16
2023-04-22T16:48:34.698Z,94029.91
2023-04-22T16:51:01.332Z,94024.63
2023-04-22T16:53:27.903Z,94037.53
2023-04-22T16:55:54.507Z,94029.50
2023-04-22T16:58:21.184Z,94044.72
2023-04-22T17:00:47.942Z,94037.03
2023-04-22T17:03:14.747Z,94042.34
2023-04-22T17:05:41.581Z,94047.56
2023-04-22T17:08:08.743Z,94042.09
2023-04-22T17:10:35.530Z,94043.94
2023-04-22T17:13:03.015Z,94043.09
2023-04-22T17:15:29.603Z,94041.56
2023-04-22T17:17:56.167Z,94037.72
2023-04-22T17:20:22.821Z,94047.50
2023-04-22T17:22:49.822Z,94046.53
2023-04-22T17:25:16.352Z,94053.88
2023-04-22T17:27:42.944Z,94047.81
2023-04-22T17:30:09.912Z,94052.31
2023-04-22T17:32:36.668Z,94053.47
2023-04-22T17:35:03.487Z,94053.06
2023-04-22T17:37:30.229Z,94059.41
2023-04-22T17:39:56.942Z,94062.06
2023-04-22T17:42:27.197Z,94067.25
2023-04-22T17:44:59.080Z,94064.47
2023-04-22T17:47:25.778Z,94073.59
2023-04-22T17:49:52.427Z,94073.44
2023-04-22T17:52:18.996Z,94071.22
2023-04-22T17:54:45.785Z,94073.59
2023-04-22T17:57:12.694Z,94068.00
2023-04-22T17:59:39.451Z,94073.75
2023-04-22T18:02:06.302Z,94075.59
2023-04-22T18:04:33.024Z,94073.38
2023-04-22T18:06:59.614Z,94084.41
2023-04-22T18:09:27.247Z,94090.59
2023-04-22T18:11:58.293Z,94100.16
2023-04-22T18:14:26.713Z,94102.66
2023-04-22T18:16:53.321Z,94099.94
2023-04-22T18:19:19.914Z,94108.63
2023-04-22T18:21:56.737Z,94118.28
2023-04-22T18:24:29.348Z,94120.56
2023-04-22T18:26:56.485Z,94122.59
2023-04-22T18:29:23.048Z,94140.09
2023-04-22T18:31:49.837Z,94133.78
2023-04-22T18:34:19.613Z,94127.72
2023-04-22T18:36:46.472Z,94125.09
2023-04-22T18:39:13.129Z,94135.03
2023-04-22T18:41:40.341Z,94137.78
2023-04-22T18:44:06.964Z,94141.38
2023-04-22T18:46:33.620Z,94141.81
2023-04-22T18:49:00.900Z,94143.88
2023-04-22T18:51:27.728Z,94147.66
2023-04-22T18:53:54.384Z,94150.44
2023-04-22T18:56:21.027Z,94150.13
2023-04-22T18:58:47.752Z,94153.56
2023-04-22T19:01:14.646Z,94158.38
2023-04-22T19:03:41.376Z,94153.28
2023-04-22T19:06:08.365Z,94162.38
2023-04-22T19:08:35.199Z,94151.84
2023-04-22T19:11:01.857Z,94164.91
2023-04-22T19:13:30.178Z,94169.22
2023-04-22T19:15:57.701Z,94168.91
2023-04-22T19:18:24.587Z,94177.75
2023-04-22T19:20:51.188Z,94181.66
2023-04-22T19:23:18.010Z,94182.59
2023-04-22T19:25:44.586Z,94182.31
2023-04-22T19:28:11.670Z,94182.31
2023-04-22T19:30:38.342Z,94185.72
2023-04-22T19:33:05.066Z,94185.47
2023-04-22T19:35:32.112Z,94186.25
2023-04-22T19:38:00.791Z,94187.28
2023-04-22T19:40:27.419Z,94187.63
2023-04-22T19:42:54.859Z,94191.59
2023-04-22T19:45:21.625Z,94190.06
2023-04-22T19:47:48.770Z,94191.50
2023-04-22T19:50:16.870Z,94187.94
2023-04-22T19:52:46.069Z,94187.22
2023-04-22T19:55:13.513Z,94187.09
2023-04-22T19:57:44.122Z,94182.88
2023-04-22T20:00:11.986Z,94191.94
2023-04-22T20:02:39.162Z,94187.00
2023-04-22T20:05:07.259Z,94191.97
2023-04-22T20:07:35.852Z,94195.25
2023-04-22T20:10:08.589Z,94197.41
2023-04-22T20:12:35.896Z,94198.09
2023-04-22T20:15:05.205Z,94190.44
2023-04-22T20:17:38.809Z,94190.13
2023-04-22T20:20:07.479Z,94182.19
2023-04-22T20:22:35.549Z,94180.59
2023-04-22T20:25:05.580Z,94179.53
2023-04-22T20:27:33.847Z,94176.00
2023-04-22T20:30:01.669Z,94186.50
2023-04-22T20:32:29.073Z,94183.47
2023-04-22T20:34:56.375Z,94184.28
2023-04-22T20:37:24.191Z,94182.06
2023-04-22T20:39:52.211Z,94183.66
2023-04-22T20:42:20.358Z,94176.78
2023-04-22T20:44:47.228Z,94189.47
2023-04-22T20:47:14.543Z,94175.50
2023-04-22T20:49:42.140Z,94175.00
2023-04-22T20:52:12.880Z,94173.91
2023-04-22T20:54:40.057Z,94178.00
2023-04-22T20:57:07.300Z,94167.22
2023-04-22T20:59:34.863Z,94168.28
2023-04-22T21:02:02.422Z,94177.47
2023-04-22T21:04:29.909Z,94172.00
2023-04-22T21:06:57.255Z,94179.78
2023-04-22T21:09:27.095Z,94171.66
2023-04-22T21:11:54.769Z,94170.09
2023-04-22T21:14:22.386Z,94170.47
2023-04-22T21:17:03.027Z,94174.88
2023-04-22T21:19:33.956Z,94180.03
2023-04-22T21:22:05.268Z,94170.50
2023-04-22T21:24:33.144Z,94175.63
2023-04-22T21:27:00.119Z,94172.81
2023-04-22T21:29:27.181Z,94176.34
2023-04-22T21:32:07.359Z,94168.25
2023-04-22T21:34:35.821Z,94173.38
2023-04-22T21:37:02.764Z,94172.50
2023-04-22T21:39:29.875Z,94171.59
2023-04-22T21:41:56.753Z,94170.03
2023-04-22T21:44:23.353Z,94169.84
2023-04-22T21:46:50.125Z,94182.41
2023-04-22T21:49:16.746Z,94173.41
2023-04-22T21:51:43.365Z,94173.41
2023-04-22T21:54:09.970Z,94179.78
2023-04-22T21:56:36.939Z,94171.50
2023-04-22T21:59:03.588Z,94170.06
2023-04-22T22:01:30.218Z,94175.19
2023-04-22T22:03:56.927Z,94167.78
2023-04-22T22:06:23.887Z,94164.97
2023-04-22T22:08:50.427Z,94160.72
2023-04-22T22:11:27.450Z,94157.19
2023-04-22T22:13:57.202Z,94164.94
2023-04-22T22:16:24.712Z,94173.28
2023-04-22T22:18:51.913Z,94165.16
2023-04-22T22:21:18.771Z,94174.16
2023-04-22T22:23:45.407Z,94178.22
2023-04-22T22:26:12.186Z,94171.84
2023-04-22T22:28:39.502Z,94173.44
2023-04-22T22:31:06.920Z,94175.56
2023-04-22T22:33:33.530Z,94190.03
2023-04-22T22:36:00.210Z,94187.97
2023-04-22T22:38:26.873Z,94197.13
2023-04-22T22:40:53.566Z,94193.56
2023-04-22T22:43:20.187Z,94194.13
2023-04-22T22:45:46.863Z,94199.94
2023-04-22T22:48:13.950Z,94195.00
2023-04-22T22:50:40.929Z,94201.53
2023-04-22T22:53:07.521Z,94201.19
2023-04-22T22:55:34.252Z,94213.00
2023-04-22T22:58:00.976Z,94205.59
2023-04-22T23:00:27.638Z,94200.13
2023-04-22T23:02:54.633Z,94204.53
2023-04-22T23:05:21.895Z,94202.38
2023-04-22T23:07:48.538Z,94201.53
2023-04-22T23:10:15.764Z,94200.63
2023-04-22T23:12:42.493Z,94200.47
2023-04-22T23:15:09.800Z,94201.50
2023-04-22T23:17:36.869Z,94201.31
2023-04-22T23:20:04.472Z,94201.66
2023-04-22T23:22:32.204Z,94200.25
2023-04-22T23:24:59.314Z,94196.00
2023-04-22T23:27:26.150Z,94185.25
2023-04-22T23:29:53.078Z,94190.38
2023-04-22T23:32:20.622Z,94181.53
2023-04-22T23:34:49.504Z,94186.13
2023-04-22T23:37:16.424Z,94182.41
2023-04-22T23:39:43.321Z,94188.75
2023-04-22T23:42:11.006Z,94186.97
2023-04-22T23:44:37.723Z,94189.81
2023-04-22T23:47:04.417Z,94182.91
2023-04-22T23:49:31.198Z,94189.25
2023-04-22T23:51:57.802Z,94184.66
2023-04-22T23:54:24.686Z,94179.88
2023-04-22T23:56:52.010Z,94183.78
2023-04-22T23:59:18.980Z,94184.81
